Sdl Kobe — 3EDG9 — position and weather

sailwx.info

Track history (hours):
 
Tides and Currents Weather Stations Pressure Air Temp Water Temp Dewpoint Dewpoint Depression Visibility Wind Speed Wind Dir Waves Ship Positions

Sdl Kobe

Last reported at 2017-Nov-18 20:23 UTC. Time now 2017-Nov-22 09:25 UTC.
Position N 34°33' E 134°46'.

Length 87 m; draft 4.5 m.

Type: Cargo ship. MMSI: 371613000.

Date/timePositionNaut miles runAvg speedWind from/ knotsBaromVisibWave heightAir tempDewpointWater temp
2017-Nov-18 20:23N 34°33' E 134°46'511.3
2017-Nov-18 19:59N 34°35' E 134°51'611.4
2017-Nov-18 19:29N 34°37' E 134°58'4 9.4
2017-Nov-18 19:01N 34°36' E 135°03'4 7.4
2017-Nov-18 18:31N 34°33' E 135°05'510.6
2017-Nov-18 18:01N 34°28' E 135°03'810.3
2017-Nov-18 17:15N 34°20' E 135°01'3 9.4
2017-Nov-18 16:57N 34°18' E 134°59'4 8.1
2017-Nov-18 16:30N 34°14' E 134°59'4 8.3
2017-Nov-18 16:00N 34°10' E 134°60'5 9.0
2017-Nov-18 15:30N 34°06' E 135°00'4 8.2
2017-Nov-18 15:00N 34°02' E 135°01'220 8.8
2017-Nov-17 14:03N 34°53' E 139°20'110.6
2017-Nov-17 13:56N 34°54' E 139°22'510.9
2017-Nov-17 13:30N 34°57' E 139°26'611.6
2017-Nov-17 13:00N 35°00' E 139°32'612.5
2017-Nov-17 12:30N 35°04' E 139°38'612.5
2017-Nov-17 12:00N 35°09' E 139°43'713.0
2017-Nov-17 11:30N 35°15' E 139°46'612.4
2017-Nov-17 11:00N 35°20' E 139°42'611.3
2017-Nov-17 10:30N 35°26' E 139°45'612.6
2017-Nov-17 10:01N 35°29' E 139°51'912.0
2017-Nov-17 09:15N 35°37' E 139°58'4 8.2
2017-Nov-17 08:45N 35°41' E 139°58'0 0.0
2017-Nov-15 21:54N 35°40' E 139°59'3 8.1
2017-Nov-15 21:29N 35°37' E 139°59'1 0.0
2017-Nov-14 16:16N 35°36' E 139°59'  
2017-Nov-11 21:07N 35°35' E 139°58'0 0.0
2017-Nov-11 20:46N 35°35' E 139°58'0 0.0
2017-Nov-11 20:25N 35°35' E 139°58'0 0.0
2017-Nov-11 19:40N 35°35' E 139°58'0 0.0
2017-Nov-11 02:17N 35°35' E 139°58'0 0.0
2017-Nov-11 01:59N 35°35' E 139°58'0 0.0
2017-Nov-10 18:59N 35°35' E 139°58'3 0.3
2017-Nov-10 09:05N 35°33' E 139°56'111.0
2017-Nov-10 09:00N 35°32' E 139°55'510.9
2017-Nov-10 08:30N 35°28' E 139°51'611.3
2017-Nov-10 08:00N 35°24' E 139°46'611.1
2017-Nov-10 07:30N 35°19' E 139°44'510.7
2017-Nov-10 07:00N 35°14' E 139°47'510.9
2017-Nov-10 06:30N 35°09' E 139°45'611.0
2017-Nov-10 06:00N 35°04' E 139°42'611.4
2017-Nov-10 05:30N 34°60' E 139°37'  
Track history (hours):
 
Tides and Currents Weather Stations Pressure Air Temp Water Temp Dewpoint Dewpoint Depression Visibility Wind Speed Wind Dir Waves Ship Positions

Sdl Kobe

Last reported at 2017-Nov-18 20:23 UTC. Time now 2017-Nov-22 09:25 UTC.
Position N 34°33' E 134°46'.

Length 87 m; draft 4.5 m.

Type: Cargo ship. MMSI: 371613000.

Date/timePositionNaut miles runAvg speedWind from/ knotsBaromVisibWave heightAir tempDewpointWater temp
2017-Nov-18 20:23N 34°33' E 134°46'511.3
2017-Nov-18 19:59N 34°35' E 134°51'611.4
2017-Nov-18 19:29N 34°37' E 134°58'4 9.4
2017-Nov-18 19:01N 34°36' E 135°03'4 7.4
2017-Nov-18 18:31N 34°33' E 135°05'510.6
2017-Nov-18 18:01N 34°28' E 135°03'810.3
2017-Nov-18 17:15N 34°20' E 135°01'3 9.4
2017-Nov-18 16:57N 34°18' E 134°59'4 8.1
2017-Nov-18 16:30N 34°14' E 134°59'4 8.3
2017-Nov-18 16:00N 34°10' E 134°60'5 9.0
2017-Nov-18 15:30N 34°06' E 135°00'4 8.2
2017-Nov-18 15:00N 34°02' E 135°01'220 8.8
2017-Nov-17 14:03N 34°53' E 139°20'110.6
2017-Nov-17 13:56N 34°54' E 139°22'510.9
2017-Nov-17 13:30N 34°57' E 139°26'611.6
2017-Nov-17 13:00N 35°00' E 139°32'612.5
2017-Nov-17 12:30N 35°04' E 139°38'612.5
2017-Nov-17 12:00N 35°09' E 139°43'713.0
2017-Nov-17 11:30N 35°15' E 139°46'612.4
2017-Nov-17 11:00N 35°20' E 139°42'611.3
2017-Nov-17 10:30N 35°26' E 139°45'612.6
2017-Nov-17 10:01N 35°29' E 139°51'912.0
2017-Nov-17 09:15N 35°37' E 139°58'4 8.2
2017-Nov-17 08:45N 35°41' E 139°58'0 0.0
2017-Nov-15 21:54N 35°40' E 139°59'3 8.1
2017-Nov-15 21:29N 35°37' E 139°59'1 0.0
2017-Nov-14 16:16N 35°36' E 139°59'  
2017-Nov-11 21:07N 35°35' E 139°58'0 0.0
2017-Nov-11 20:46N 35°35' E 139°58'0 0.0
2017-Nov-11 20:25N 35°35' E 139°58'0 0.0
2017-Nov-11 19:40N 35°35' E 139°58'0 0.0
2017-Nov-11 02:17N 35°35' E 139°58'0 0.0
2017-Nov-11 01:59N 35°35' E 139°58'0 0.0
2017-Nov-10 18:59N 35°35' E 139°58'3 0.3
2017-Nov-10 09:05N 35°33' E 139°56'111.0
2017-Nov-10 09:00N 35°32' E 139°55'510.9
2017-Nov-10 08:30N 35°28' E 139°51'611.3
2017-Nov-10 08:00N 35°24' E 139°46'611.1
2017-Nov-10 07:30N 35°19' E 139°44'510.7
2017-Nov-10 07:00N 35°14' E 139°47'510.9
2017-Nov-10 06:30N 35°09' E 139°45'611.0
2017-Nov-10 06:00N 35°04' E 139°42'611.4
2017-Nov-10 05:30N 34°60' E 139°37'  

Dump ship's entire track history